createdAt,value
2023-06-30T00:06:44.822Z,21.94
2023-06-30T00:16:48.178Z,21.94
2023-06-30T00:38:10.110Z,21.94
2023-06-30T00:47:55.573Z,21.94
2023-06-30T00:57:51.047Z,21.94
2023-06-30T01:07:54.196Z,21.94
2023-06-30T01:17:57.499Z,21.94
2023-06-30T01:28:00.759Z,21.94
2023-06-30T01:38:03.948Z,21.94
2023-06-30T01:48:07.224Z,21.94
2023-06-30T01:58:10.444Z,21.94
2023-06-30T02:08:13.624Z,21.94
2023-06-30T02:18:16.840Z,21.94
2023-06-30T02:28:19.992Z,21.94
2023-06-30T02:38:23.186Z,21.94
2023-06-30T02:48:26.353Z,21.94
2023-06-30T02:58:29.576Z,21.95
2023-06-30T03:08:32.791Z,21.94
2023-06-30T03:18:35.978Z,21.94
2023-06-30T03:28:39.209Z,21.95
2023-06-30T03:38:42.416Z,21.95
2023-06-30T03:48:45.584Z,21.95
2023-06-30T03:58:48.785Z,21.95
2023-06-30T04:08:51.956Z,21.95
2023-06-30T04:18:55.155Z,21.95
2023-06-30T04:28:58.317Z,21.95
2023-06-30T04:39:01.617Z,21.95
2023-06-30T04:49:04.812Z,21.95
2023-06-30T04:59:08.000Z,21.95
2023-06-30T05:09:11.134Z,21.95
2023-06-30T05:19:14.378Z,21.95
2023-06-30T05:29:17.535Z,21.95
2023-06-30T05:39:20.748Z,21.86
2023-06-30T05:49:23.898Z,21.84
2023-06-30T05:59:27.086Z,21.84
2023-06-30T06:09:30.242Z,21.84
2023-06-30T06:19:33.450Z,21.84
2023-06-30T06:29:36.611Z,21.84
2023-06-30T06:39:39.799Z,21.94
2023-06-30T06:49:44.649Z,21.94
2023-06-30T06:59:47.454Z,21.94
2023-06-30T07:09:50.615Z,21.94
2023-06-30T07:19:53.798Z,21.94
2023-06-30T07:29:56.948Z,21.94
2023-06-30T07:40:15.327Z,21.94
2023-06-30T07:50:04.111Z,21.94
2023-06-30T08:00:07.313Z,21.94
2023-06-30T08:10:10.473Z,21.94
2023-06-30T08:20:13.798Z,21.94
2023-06-30T08:30:17.135Z,21.94
2023-06-30T08:40:20.344Z,21.94
2023-06-30T08:50:23.618Z,21.94
2023-06-30T09:00:26.894Z,21.94
2023-06-30T09:10:30.057Z,21.94
2023-06-30T09:20:33.254Z,21.92
2023-06-30T09:30:36.405Z,21.92
2023-06-30T09:40:39.603Z,21.92
2023-06-30T09:50:42.783Z,21.92
2023-06-30T10:00:45.972Z,21.92
2023-06-30T10:10:49.199Z,21.92
2023-06-30T10:20:53.388Z,22.02
2023-06-30T10:30:56.552Z,22.02
2023-06-30T10:40:59.762Z,22.02
2023-06-30T10:51:02.943Z,22.02
2023-06-30T11:01:06.194Z,22.02
2023-06-30T11:11:09.366Z,22.02
2023-06-30T11:21:12.549Z,22.02
2023-06-30T11:31:15.759Z,22.02
2023-06-30T11:41:18.978Z,22.02
2023-06-30T11:51:22.149Z,22.02
2023-06-30T12:01:25.343Z,22.02
2023-06-30T12:11:28.513Z,22.02
2023-06-30T12:21:31.714Z,22.02
2023-06-30T12:31:34.930Z,22.02
2023-06-30T12:41:38.124Z,22.02
2023-06-30T12:51:41.387Z,22.02
2023-06-30T13:01:44.609Z,22.02
2023-06-30T13:11:47.798Z,22.02
2023-06-30T13:21:50.992Z,22.02
2023-06-30T13:31:54.230Z,22.02
2023-06-30T13:41:57.475Z,22.02
2023-06-30T13:52:00.637Z,22.02
2023-06-30T14:02:03.851Z,22.02
2023-06-30T14:12:07.018Z,22.02
2023-06-30T14:22:10.199Z,22.02
2023-06-30T14:32:13.392Z,22.02
2023-06-30T14:42:30.853Z,22.02
2023-06-30T14:52:20.523Z,22.02
2023-06-30T15:02:23.912Z,22.02
2023-06-30T15:12:27.254Z,22.02
2023-06-30T15:22:30.533Z,22.02
2023-06-30T15:32:33.934Z,22.02
2023-06-30T15:42:37.193Z,22.02
2023-06-30T15:52:40.355Z,22.02
2023-06-30T16:02:43.693Z,22.02
2023-06-30T16:12:46.982Z,22.02
2023-06-30T16:22:50.166Z,22.02
2023-06-30T16:32:53.415Z,22.02
2023-06-30T16:42:56.716Z,22.02
2023-06-30T16:52:59.881Z,22.02
2023-06-30T17:03:03.293Z,22.02
2023-06-30T17:23:58.372Z,22.02
2023-06-30T17:34:01.534Z,22.02
2023-06-30T17:44:04.716Z,22.02
2023-06-30T17:54:07.907Z,22.02
2023-06-30T18:04:11.232Z,22.02
2023-06-30T18:14:14.560Z,22.02
2023-06-30T18:24:17.789Z,22.02
2023-06-30T18:34:21.000Z,22.02
2023-06-30T18:44:24.171Z,22.02
2023-06-30T18:54:27.330Z,22.02
2023-06-30T19:04:30.657Z,22.02
2023-06-30T19:14:33.878Z,22.02
2023-06-30T19:24:37.091Z,22.02
2023-06-30T19:34:40.778Z,22.02
2023-06-30T19:44:43.977Z,22.02
2023-06-30T19:54:47.130Z,22.02
2023-06-30T20:04:50.436Z,22.02
2023-06-30T20:14:53.690Z,22.02
2023-06-30T20:24:57.048Z,22.02
2023-06-30T20:35:00.230Z,22.02
2023-06-30T20:45:03.433Z,22.02
2023-06-30T20:55:06.620Z,22.02
2023-06-30T21:05:09.905Z,22.02
2023-06-30T21:15:13.075Z,22.02
2023-06-30T21:25:16.255Z,22.02
2023-06-30T21:35:19.472Z,22.12
2023-06-30T21:45:22.750Z,22.02
2023-06-30T21:55:25.987Z,22.02
2023-06-30T22:05:30.328Z,22.02
2023-06-30T22:15:33.683Z,22.02
2023-06-30T22:25:36.901Z,22.03
2023-06-30T22:35:40.098Z,22.03
2023-06-30T22:45:43.308Z,22.03
2023-06-30T22:55:46.469Z,22.03
2023-06-30T23:05:49.675Z,22.03
2023-06-30T23:15:52.861Z,22.03
2023-06-30T23:25:56.089Z,22.03
2023-06-30T23:35:59.272Z,22.03
2023-06-30T23:46:02.494Z,22.03
2023-06-30T23:56:05.649Z,22.03
